createdAt,value
2018-07-19T00:02:23.933Z,100233.59
2018-07-19T00:07:28.305Z,100235.45
2018-07-19T00:12:31.807Z,100237.19
2018-07-19T00:17:35.642Z,100233.59
2018-07-19T00:22:39.113Z,100228.75
2018-07-19T00:27:42.620Z,100225.78
2018-07-19T00:32:46.113Z,100226.89
2018-07-19T00:37:49.665Z,100228.52
2018-07-19T00:42:53.457Z,100227.21
2018-07-19T00:47:56.962Z,100221.39
2018-07-19T00:53:00.671Z,100227.52
2018-07-19T00:58:04.457Z,100234.00
2018-07-19T01:03:08.103Z,100232.89
2018-07-19T01:08:11.821Z,100232.23
2018-07-19T01:13:15.377Z,100224.34
2018-07-19T01:18:19.175Z,100225.88
2018-07-19T01:23:23.017Z,100221.91
2018-07-19T01:28:26.699Z,100222.02
2018-07-19T01:33:30.336Z,100222.80
2018-07-19T01:38:33.797Z,100217.97
2018-07-19T01:43:37.466Z,100213.81
2018-07-19T01:48:40.979Z,100214.47
2018-07-19T01:53:44.647Z,100220.48
2018-07-19T01:58:48.145Z,100220.83
2018-07-19T02:03:51.726Z,100218.41
2018-07-19T02:08:55.557Z,100224.11
2018-07-19T02:13:59.222Z,100227.84
2018-07-19T02:19:02.900Z,100226.41
2018-07-19T02:24:06.404Z,100221.05
2018-07-19T02:29:09.889Z,100225.41
2018-07-19T02:34:13.461Z,100228.72
2018-07-19T02:39:17.163Z,100234.63
2018-07-19T02:44:20.774Z,100233.08
2018-07-19T02:49:24.293Z,100232.88
2018-07-19T02:54:27.828Z,100235.73
2018-07-19T02:59:31.292Z,100234.73
2018-07-19T03:04:34.816Z,100239.35
2018-07-19T03:09:38.462Z,100240.86
2018-07-19T03:14:41.976Z,100246.47
2018-07-19T03:19:45.789Z,100240.51
2018-07-19T03:24:49.263Z,100244.39
2018-07-19T03:29:52.782Z,100249.25
2018-07-19T03:34:56.309Z,100252.22
2018-07-19T03:40:00.016Z,100259.34
2018-07-19T03:45:03.569Z,100259.45
2018-07-19T03:50:08.269Z,100264.71
2018-07-19T03:55:12.062Z,100271.48
2018-07-19T04:00:15.864Z,100273.38
2018-07-19T04:05:19.402Z,100273.03
2018-07-19T04:10:22.998Z,100279.99
2018-07-19T04:15:26.718Z,100279.30
2018-07-19T04:20:31.627Z,100276.39
2018-07-19T04:25:35.129Z,100294.04
2018-07-19T04:30:38.893Z,100284.83
2018-07-19T04:35:42.719Z,100294.44
2018-07-19T04:40:46.445Z,100293.34
2018-07-19T04:45:50.033Z,100295.69
2018-07-19T04:50:53.625Z,100294.58
2018-07-19T04:55:57.390Z,100289.34
2018-07-19T05:01:02.143Z,100293.15
2018-07-19T05:06:05.817Z,100293.84
2018-07-19T05:11:09.481Z,100298.14
2018-07-19T05:16:12.956Z,100294.50
2018-07-19T05:21:16.448Z,100297.77
2018-07-19T05:26:19.926Z,100299.29
2018-07-19T05:31:23.942Z,100276.20
2018-07-19T05:36:27.667Z,100295.70
2018-07-19T05:41:31.365Z,100304.17
2018-07-19T05:46:35.036Z,100295.88
2018-07-19T05:51:38.624Z,100295.70
2018-07-19T05:56:42.305Z,100299.01
2018-07-19T06:01:45.930Z,100299.13
2018-07-19T06:06:49.416Z,100300.20
2018-07-19T06:11:52.918Z,100298.66
2018-07-19T06:16:56.420Z,100297.40
2018-07-19T06:21:59.920Z,100291.95
2018-07-19T06:27:03.427Z,100295.59
2018-07-19T06:32:07.032Z,100301.45
2018-07-19T06:37:10.879Z,100300.48
2018-07-19T06:42:14.481Z,100299.96
2018-07-19T06:47:18.025Z,100299.77
2018-07-19T06:52:21.503Z,100297.73
2018-07-19T06:57:25.076Z,100290.09
2018-07-19T07:02:28.589Z,100294.06
2018-07-19T07:23:55.205Z,100295.25
2018-07-19T07:28:58.629Z,100291.20
2018-07-19T07:34:02.379Z,100290.76
2018-07-19T07:39:08.902Z,100294.59
2018-07-19T07:44:12.554Z,100298.48
2018-07-19T07:49:16.098Z,100301.41
2018-07-19T07:54:19.675Z,100303.08
2018-07-19T07:59:23.549Z,100298.28
2018-07-19T08:04:27.302Z,100298.36
2018-07-19T08:09:30.857Z,100295.10
2018-07-19T08:14:34.780Z,100296.86
2018-07-19T08:19:38.238Z,100299.02
2018-07-19T08:24:41.701Z,100295.40
2018-07-19T08:29:45.198Z,100288.93
2018-07-19T08:34:48.973Z,100287.37
2018-07-19T08:39:52.548Z,100283.36
2018-07-19T08:44:56.583Z,100288.44
2018-07-19T08:50:00.281Z,100288.93
2018-07-19T08:55:04.120Z,100288.36
2018-07-19T09:00:07.792Z,100283.85
2018-07-19T09:05:11.776Z,100286.70
2018-07-19T09:10:15.817Z,100283.51
2018-07-19T09:15:19.520Z,100282.47
2018-07-19T09:20:23.090Z,100284.37
2018-07-19T09:25:26.949Z,100273.75
2018-07-19T09:30:30.506Z,100273.34
2018-07-19T09:35:34.188Z,100271.29
2018-07-19T09:40:37.788Z,100266.19
2018-07-19T09:45:41.309Z,100260.28
2018-07-19T09:50:44.975Z,100266.56
2018-07-19T09:55:48.561Z,100268.76
2018-07-19T10:00:57.681Z,100266.61
2018-07-19T10:06:01.222Z,100266.09
2018-07-19T10:11:04.741Z,100280.86
2018-07-19T10:16:08.644Z,100279.44
2018-07-19T10:21:12.160Z,100274.17
2018-07-19T10:26:15.669Z,100270.14
2018-07-19T10:31:19.316Z,100270.34
2018-07-19T10:36:23.131Z,100272.45
2018-07-19T10:41:27.407Z,100272.54
2018-07-19T10:46:30.969Z,100273.66
2018-07-19T10:51:34.473Z,100263.47
2018-07-19T10:56:38.402Z,100261.16
2018-07-19T11:01:42.054Z,100265.66
2018-07-19T11:06:45.592Z,100262.28
2018-07-19T11:11:49.301Z,100255.81
2018-07-19T11:16:52.883Z,100258.36
2018-07-19T11:21:56.489Z,100250.66
2018-07-19T11:26:59.941Z,100249.59
2018-07-19T11:32:03.754Z,100242.88
2018-07-19T11:37:07.231Z,100244.41
2018-07-19T11:42:11.302Z,100241.80
2018-07-19T11:47:14.905Z,100243.34
2018-07-19T11:52:18.601Z,100229.75
2018-07-19T11:57:22.145Z,100243.34
2018-07-19T12:02:25.724Z,100236.34
2018-07-19T12:07:29.330Z,100233.80
2018-07-19T12:12:32.997Z,100227.55
2018-07-19T12:17:36.454Z,100218.12
2018-07-19T12:22:40.158Z,100222.86
2018-07-19T12:27:43.770Z,100198.05
2018-07-19T12:32:47.481Z,100207.72
2018-07-19T12:37:50.957Z,100206.61
2018-07-19T12:42:55.412Z,100208.80
2018-07-19T12:47:59.193Z,100206.42
2018-07-19T12:53:02.928Z,100207.84
2018-07-19T12:58:06.564Z,100202.29
2018-07-19T13:03:10.036Z,100209.19
2018-07-19T13:08:14.307Z,100214.34
2018-07-19T13:13:18.324Z,100200.98
2018-07-19T13:18:21.942Z,100191.43
2018-07-19T13:23:25.567Z,100187.47
2018-07-19T13:28:29.424Z,100186.61
2018-07-19T13:33:33.454Z,100197.25
2018-07-19T13:38:36.994Z,100187.70
2018-07-19T13:43:40.660Z,100172.58
2018-07-19T13:48:44.138Z,100175.75
2018-07-19T13:54:17.029Z,100173.33
2018-07-19T13:59:20.886Z,100177.91
2018-07-19T14:04:24.531Z,100170.70
2018-07-19T14:09:27.958Z,100162.03
2018-07-19T14:14:31.383Z,100166.88
2018-07-19T14:19:35.134Z,100150.31
2018-07-19T14:24:38.686Z,100138.58
2018-07-19T14:29:42.138Z,100155.36
2018-07-19T14:34:45.629Z,100158.32
2018-07-19T14:39:49.164Z,100158.09
2018-07-19T14:44:52.858Z,100143.94
2018-07-19T14:49:56.626Z,100139.90
2018-07-19T14:55:00.358Z,100135.17
2018-07-19T15:00:04.538Z,100130.88
2018-07-19T15:05:08.569Z,100132.42
2018-07-19T15:10:12.184Z,100138.02
2018-07-19T15:15:15.797Z,100129.79
2018-07-19T15:20:19.793Z,100126.06
2018-07-19T15:25:23.523Z,100115.41
2018-07-19T15:30:27.278Z,100111.37
2018-07-19T15:35:30.862Z,100110.25
2018-07-19T15:40:34.318Z,100115.52
2018-07-19T15:45:37.798Z,100113.69
2018-07-19T15:50:41.602Z,100101.37
2018-07-19T15:55:45.253Z,100095.88
2018-07-19T16:00:49.060Z,100098.95
2018-07-19T16:05:52.765Z,100092.05
2018-07-19T16:10:56.514Z,100087.89
2018-07-19T16:16:00.123Z,100088.88
2018-07-19T16:21:03.689Z,100088.74
2018-07-19T16:26:07.544Z,100083.04
2018-07-19T16:31:12.213Z,100080.97
2018-07-19T16:36:16.438Z,100084.04
2018-07-19T16:41:20.092Z,100083.06
2018-07-19T16:46:23.701Z,100082.40
2018-07-19T16:51:27.193Z,100080.75
2018-07-19T16:56:30.685Z,100078.54
2018-07-19T17:01:35.124Z,100072.42
2018-07-19T17:06:39.165Z,100083.89
2018-07-19T17:11:42.809Z,100082.27
2018-07-19T17:16:46.290Z,100076.97
2018-07-19T17:21:49.942Z,100078.09
2018-07-19T17:26:54.364Z,100082.05
2018-07-19T17:31:58.392Z,100077.31
2018-07-19T17:37:02.289Z,100072.56
2018-07-19T17:42:05.932Z,100076.31
2018-07-19T17:47:09.548Z,100073.36
2018-07-19T17:52:13.061Z,100076.20
2018-07-19T17:57:17.025Z,100080.46
2018-07-19T18:02:20.593Z,100079.50
2018-07-19T18:07:24.517Z,100074.23
2018-07-19T18:12:28.142Z,100073.25
2018-07-19T18:17:32.222Z,100070.94
2018-07-19T18:22:35.726Z,100076.97
2018-07-19T18:27:39.367Z,100083.34
2018-07-19T18:32:44.047Z,100082.91
2018-07-19T18:37:47.756Z,100088.06
2018-07-19T18:42:52.084Z,100092.67
2018-07-19T18:47:55.584Z,100089.92
2018-07-19T18:52:59.305Z,100095.52
2018-07-19T18:58:02.849Z,100087.84
2018-07-19T19:03:06.689Z,100092.53
2018-07-19T19:08:10.557Z,100093.75
2018-07-19T19:13:14.126Z,100100.11
2018-07-19T19:18:17.902Z,100095.50
2018-07-19T19:23:21.642Z,100111.83
2018-07-19T19:28:25.400Z,100109.52
2018-07-19T19:33:29.106Z,100103.62
2018-07-19T19:38:32.610Z,100127.83
2018-07-19T19:43:36.705Z,100127.06
2018-07-19T19:48:40.397Z,100136.09
2018-07-19T19:53:43.913Z,100131.16
2018-07-19T19:58:47.516Z,100131.34
2018-07-19T20:03:51.439Z,100136.20
2018-07-19T20:08:55.156Z,100141.91
2018-07-19T20:13:58.933Z,100140.48
2018-07-19T20:19:02.386Z,100140.89
2018-07-19T20:24:05.898Z,100141.00
2018-07-19T20:29:09.594Z,100146.27
2018-07-19T20:34:13.097Z,100145.94
2018-07-19T20:39:16.613Z,100154.63
2018-07-19T20:44:20.551Z,100155.84
2018-07-19T20:49:23.980Z,100163.19
2018-07-19T20:54:27.505Z,100164.16
2018-07-19T20:59:31.108Z,100163.50
2018-07-19T21:04:34.594Z,100159.00
2018-07-19T21:09:38.741Z,100168.22
2018-07-19T21:14:42.685Z,100163.86
2018-07-19T21:19:46.192Z,100163.86
2018-07-19T21:24:49.705Z,100161.55
2018-07-19T21:29:54.048Z,100171.45
2018-07-19T21:34:58.152Z,100166.73
2018-07-19T21:40:01.791Z,100163.11
2018-07-19T21:45:05.828Z,100167.39
2018-07-19T21:50:09.545Z,100167.72
2018-07-19T21:55:13.331Z,100166.17
2018-07-19T22:00:16.801Z,100166.72
2018-07-19T22:05:20.399Z,100168.26
2018-07-19T22:10:23.877Z,100162.66
2018-07-19T22:15:27.675Z,100160.59
2018-07-19T22:20:31.289Z,100167.08
2018-07-19T22:25:34.817Z,100163.45
2018-07-19T22:30:38.387Z,100159.94
2018-07-19T22:35:41.873Z,100170.47
2018-07-19T22:40:45.334Z,100171.58
2018-07-19T22:45:48.813Z,100171.67
2018-07-19T22:50:52.286Z,100181.47
2018-07-19T22:55:55.873Z,100175.31
2018-07-19T23:00:59.425Z,100187.94
2018-07-19T23:06:03.081Z,100191.00
2018-07-19T23:11:06.612Z,100192.89
2018-07-19T23:16:10.633Z,100191.00
2018-07-19T23:21:14.261Z,100196.70
2018-07-19T23:26:17.976Z,100198.25
2018-07-19T23:31:21.738Z,100195.83
2018-07-19T23:36:29.245Z,100183.57
2018-07-19T23:41:38.047Z,100184.11
2018-07-19T23:46:46.024Z,100187.27
2018-07-19T23:51:49.477Z,100190.02
2018-07-19T23:56:52.937Z,100183.43
